Disclaimer

Please do not use the information listed here in-flight or in-navigation, as they are not provided to us by the airports but are provided by volunteers, so they might be outdated.

Search


Regions


Airport information page

No radio frequency information is available.

Airport informations:
Latitude: 21° 50' 34.85" S
Longitude: 046° 34' 04.50" W
Elevation: 4135 feet - 1260 meters
Operating hours: From sunrise to sunset (SR-SS)
Operating agency: Civil government, landing fees and diplomatic clearance may be required
Timezone: UTC-3(-2DT)
Fuel: N/A

Runway information:
09/27 - 4101 x 98 feet< - >1250 x 30 meters

Recent METARs:
SBPC 191900Z 34006KT 9999 SCT020 FEW030TCU 29/20 Q1018
SBPC 191900Z 34006KT 9999 SCT020 FEW030TCU 29/20 Q1018
SBPC 191900Z 34006KT 9999 SCT020 FEW030TCU 29/20 Q1018

Airport on the map: